Holland, MI

4:30 AM EDT on April 23, 2018 (GMT -0400)
Tulip City

Weather History for KBIV - May, 2013

Change the Weather History Date:

Wednesday, May 22, 2013

  Actual Average Record
Temperature  
Mean Temperature 62 °F 61 °F  
Max Temperature 72 °F 71 °F 93 °F (1977)
Min Temperature 52 °F 51 °F 32 °F (1971)
Degree Days  
Heating Degree Days 3 6  
Month to date heating degree days 84 188  
Since 1 July heating degree days 5887 6067  
Cooling Degree Days 0 2  
Month to date cooling degree days 52 18  
Year to date cooling degree days 58 22  
Growing Degree Days 12 (Base 50)    
Moisture  
Dew Point 60 °F    
Average Humidity 86    
Maximum Humidity 93    
Minimum Humidity 78    
Precipitation  
Precipitation 0.53 in 0.10 in 0.71 in (1984)
Month to date precipitation 1.30 2.36  
Year to date precipitation 17.14 11.77  
Sea Level Pressure  
Sea Level Pressure 29.68 in    
Wind  
Wind Speed 8 mph (SW)    
Max Wind Speed 21 mph    
Max Gust Speed 28 mph    
Visibility 6 miles    
Events Fog , Rain    
T = Trace of Precipitation, MM = Missing Value Source: NWS Daily Summary

Daily Weather History Graph

Daily Weather History Graph

Search for Another Location

Airport or City:

Astronomy

May. 22, 2013 Rise Set
Actual Time 6:15 AM EDT 9:07 PM EDT
Civil Twilight 5:42 AM EDT 9:40 PM EDT
Nautical Twilight 4:59 AM EDT 10:23 PM EDT
Astronomical Twilight 4:11 AM EDT 11:12 PM EDT
Moon 6:26 PM EDT (5/22) 4:22 AM EDT (5/22)
Length of Visible Light 15h 58m
Length of Day
14h 52m
Waxing Gibbous, 91% of the Moon is Illuminated
May 22
Waxing Gibbous
May 25
Full
May 31
Last Quarter
Jun 8
New
Jun 16
First Quarter

Hourly Weather History & Observations

Time (EDT) Temp. Dew Point Humidity Pressure Visibility Wind Dir Wind Speed Gust Speed Precip Events Conditions
12:53 AM 70.0 °F 62.1 °F 76% 29.71 in 10.0 mi Calm Calm - N/A   Clear
1:53 AM 70.0 °F 63.0 °F 78% 29.71 in 10.0 mi WSW 19.6 mph 24.2 mph N/A   Partly Cloudy
2:53 AM 66.9 °F 61.0 °F 81% 29.69 in 10.0 mi SSE 10.4 mph - N/A   Mostly Cloudy
3:53 AM 66.0 °F 62.1 °F 87% 29.69 in 9.0 mi Calm Calm - 0.04 in Rain Light Rain
4:53 AM 66.0 °F 62.1 °F 87% 29.70 in 8.0 mi Calm Calm - 0.00 in Rain Light Rain
5:08 AM 66.2 °F 60.8 °F 83% 29.71 in 10.0 mi West 15.0 mph - 0.00 in Rain Light Rain
5:37 AM 64.4 °F 60.8 °F 88% 29.71 in 4.0 mi Calm Calm - 0.04 in Rain Rain
5:53 AM 64.9 °F 61.0 °F 87% 29.70 in 2.5 mi Calm Calm - 0.11 in Rain Heavy Rain
6:04 AM 64.4 °F 60.8 °F 88% 29.71 in 5.0 mi NNW 3.5 mph - 0.03 in Rain Rain
6:53 AM 64.9 °F 61.0 °F 87% 29.68 in 9.0 mi ENE 3.5 mph - 0.03 in   Mostly Cloudy
7:53 AM 66.0 °F 62.1 °F 87% 29.69 in 7.0 mi ESE 5.8 mph - N/A   Overcast
8:53 AM 66.9 °F 63.0 °F 87% 29.67 in 9.0 mi East 8.1 mph - 0.00 in   Mostly Cloudy
9:53 AM 68.0 °F 63.0 °F 84% 29.66 in 10.0 mi ESE 6.9 mph - 0.03 in   Overcast
10:31 AM 69.8 °F 64.4 °F 83% 29.65 in 6.0 mi ESE 8.1 mph - 0.00 in Rain Light Rain
10:38 AM 69.8 °F 64.4 °F 83% 29.65 in 2.5 mi SE 6.9 mph - 0.03 in Rain Rain
10:50 AM 69.8 °F 64.4 °F 83% 29.65 in 5.0 mi SE 5.8 mph - 0.03 in Rain Light Rain
10:51 AM 69.8 °F 64.4 °F 83% 29.65 in 5.0 mi SE 6.9 mph - 0.03 in Rain Light Rain
10:53 AM 69.1 °F 64.9 °F 87% 29.64 in 5.0 mi SE 5.8 mph - 0.03 in Rain Light Rain
11:02 AM 69.8 °F 64.4 °F 83% 29.65 in 6.0 mi SSE 9.2 mph - 0.00 in   Haze
11:33 AM 69.8 °F 64.4 °F 83% 29.65 in 2.5 mi South 12.7 mph - 0.06 in Rain Heavy Rain
11:37 AM 69.8 °F 64.4 °F 83% 29.65 in 1.8 mi South 13.8 mph - 0.10 in Rain Rain
11:46 AM 69.8 °F 64.4 °F 83% 29.65 in 2.0 mi South 10.4 mph 17.3 mph 0.16 in Rain Rain
11:49 AM 69.8 °F 64.4 °F 83% 29.65 in 3.0 mi South 11.5 mph - 0.16 in Rain Light Rain
11:53 AM 70.0 °F 64.9 °F 84% 29.65 in 5.0 mi SSW 12.7 mph - 0.16 in Rain Light Rain
12:02 PM 69.8 °F 64.4 °F 83% 29.66 in 2.5 mi SSW 12.7 mph 24.2 mph 0.05 in Rain Heavy Rain
12:10 PM 68.0 °F 62.6 °F 83% 29.66 in 1.5 mi SSW 11.5 mph 20.7 mph 0.10 in Rain Rain
12:13 PM 68.0 °F 62.6 °F 83% 29.66 in 2.0 mi SSW 11.5 mph - 0.11 in Rain Rain
12:21 PM 68.0 °F 64.4 °F 88% 29.66 in 8.0 mi SSW 10.4 mph - 0.11 in Rain Light Rain
12:42 PM 69.8 °F 64.4 °F 83% 29.66 in 10.0 mi SSW 13.8 mph 20.7 mph 0.11 in   Overcast
12:53 PM 70.0 °F 64.0 °F 81% 29.65 in 9.0 mi SW 17.3 mph 24.2 mph 0.11 in   Overcast
1:20 PM 71.6 °F 64.4 °F 78% 29.66 in 10.0 mi SW 16.1 mph - N/A   Mostly Cloudy
1:53 PM 71.1 °F 64.9 °F 81% 29.65 in 9.0 mi SW 16.1 mph 25.3 mph N/A   Overcast
2:02 PM 69.8 °F 64.4 °F 83% 29.66 in 9.0 mi WSW 13.8 mph 25.3 mph N/A   Overcast
2:33 PM 69.8 °F 62.6 °F 78% 29.67 in 9.0 mi SW 15.0 mph 23.0 mph N/A   Overcast
2:53 PM 68.0 °F 62.1 °F 81% 29.67 in 9.0 mi WSW 16.1 mph 27.6 mph N/A   Overcast
3:14 PM 69.8 °F 62.6 °F 78% 29.68 in 10.0 mi WSW 17.3 mph 23.0 mph 0.00 in Rain Light Rain
3:19 PM 68.0 °F 62.6 °F 83% 29.68 in 8.0 mi SW 17.3 mph 24.2 mph 0.01 in Rain Light Rain
3:31 PM 66.2 °F 62.6 °F 88% 29.68 in 7.0 mi SW 15.0 mph - 0.02 in Rain Light Rain
3:53 PM 64.9 °F 61.0 °F 87% 29.68 in 10.0 mi SW 13.8 mph - 0.02 in   Overcast
4:03 PM 64.4 °F 60.8 °F 88% 29.68 in 10.0 mi WSW 10.4 mph 18.4 mph N/A   Overcast
4:38 PM 62.6 °F 57.2 °F 82% 29.68 in 10.0 mi West 11.5 mph - 0.00 in   Overcast
4:53 PM 63.0 °F 57.9 °F 84% 29.66 in 10.0 mi West 9.2 mph - 0.00 in   Overcast
5:53 PM 64.0 °F 59.0 °F 84% 29.67 in 10.0 mi WSW 6.9 mph - N/A   Overcast
6:24 PM 64.4 °F 59.0 °F 83% 29.67 in 10.0 mi WSW 5.8 mph - N/A   Mostly Cloudy
6:46 PM 62.6 °F 57.2 °F 82% 29.69 in 10.0 mi SW 13.8 mph - N/A   Mostly Cloudy
6:53 PM 61.0 °F 57.0 °F 87% 29.69 in 10.0 mi WSW 11.5 mph - N/A   Mostly Cloudy
7:04 PM 60.8 °F 55.4 °F 82% 29.69 in 10.0 mi SW 10.4 mph - N/A   Overcast
7:53 PM 60.1 °F 55.0 °F 83% 29.69 in 10.0 mi West 6.9 mph - N/A   Overcast
8:19 PM 57.2 °F 55.4 °F 94% 29.70 in 1.8 mi WSW 4.6 mph - N/A   Overcast
8:23 PM 57.2 °F 53.6 °F 88% 29.70 in 0.8 mi SW 5.8 mph - N/A   Overcast
8:40 PM 57.2 °F 53.6 °F 88% 29.70 in 0.5 mi West 3.5 mph - N/A Fog Fog
8:49 PM 57.2 °F 53.6 °F 88% 29.70 in 1.0 mi West 4.6 mph - N/A   Mist
8:53 PM 57.0 °F 54.0 °F 89% 29.70 in 1.0 mi West 3.5 mph - N/A   Mist
9:04 PM 57.2 °F 53.6 °F 88% 29.71 in 2.5 mi Calm Calm - N/A   Overcast
9:12 PM 57.2 °F 53.6 °F 88% 29.71 in 7.0 mi SW 4.6 mph - N/A   Overcast
9:50 PM 57.2 °F 53.6 °F 88% 29.71 in 1.8 mi SW 3.5 mph - N/A   Overcast
9:53 PM 57.0 °F 54.0 °F 89% 29.71 in 1.5 mi SW 3.5 mph - N/A   Overcast
10:02 PM 57.2 °F 53.6 °F 88% 29.71 in 1.0 mi West 3.5 mph - N/A   Mist
10:11 PM 57.2 °F 53.6 °F 88% 29.72 in 0.8 mi West 4.6 mph - N/A   Mist
10:21 PM 57.2 °F 53.6 °F 88% 29.72 in 1.0 mi West 5.8 mph - N/A   Mist
10:43 PM 55.4 °F 53.6 °F 94% 29.73 in 0.5 mi West 6.9 mph - N/A Fog Fog
10:53 PM 55.9 °F 53.1 °F 90% 29.73 in 0.5 mi West 6.9 mph - N/A Fog Fog
11:01 PM 55.4 °F 53.6 °F 94% 29.73 in 1.0 mi West 8.1 mph - N/A   Mist
11:14 PM 53.6 °F 51.8 °F 94% 29.73 in 0.8 mi WNW 5.8 mph - N/A   Mist
11:27 PM 53.6 °F 51.8 °F 94% 29.73 in 1.5 mi West 3.5 mph - N/A   Overcast
11:37 PM 53.6 °F 50.0 °F 88% 29.73 in 2.0 mi Calm Calm - N/A   Overcast
11:53 PM 53.1 °F 50.0 °F 89% 29.73 in 2.0 mi West 3.5 mph - N/A   Overcast